Time;durP1;ratioP1;P1;durP2;ratioP2;P2;SDS_P1;SDS_P2;PMS_P1;PMS_P2;Temp;Humidity;BMP_temperature;BMP_pressure;BME280_temperature;BME280_humidity;BME280_pressure;Samples;Min_cycle;Max_cycle;Signal;HPM_P1;HPM_P2
2020/12/19 00:01:46;;;;;;;10.20;7.17;;;4.00;99.90;;;;;;5082932;28;20631;-83
2020/12/19 00:04:12;;;;;;;10.20;6.70;;;3.90;99.90;;;;;;5082677;28;20187;-84
2020/12/19 00:06:37;;;;;;;9.10;6.30;;;3.90;99.90;;;;;;5082338;28;20184;-85
2020/12/19 00:09:03;;;;;;;11.17;6.43;;;3.80;99.90;;;;;;5099290;28;20200;-84
2020/12/19 00:11:28;;;;;;;9.10;6.80;;;3.70;99.90;;;;;;5082536;28;20183;-85
2020/12/19 00:13:54;;;;;;;8.00;6.23;;;3.70;99.90;;;;;;5082133;28;20171;-85
2020/12/19 00:16:19;;;;;;;10.33;6.73;;;3.70;99.90;;;;;;5081564;28;20674;-85
2020/12/19 00:18:45;;;;;;;8.97;7.03;;;3.60;99.90;;;;;;5098611;28;20726;-85
2020/12/19 00:21:11;;;;;;;8.73;6.77;;;3.60;99.90;;;;;;5098689;28;20552;-85
2020/12/19 00:23:36;;;;;;;8.73;6.60;;;3.60;99.90;;;;;;5082011;28;20541;-85
2020/12/19 00:26:02;;;;;;;9.37;6.80;;;3.60;99.90;;;;;;5081403;28;20177;-86
2020/12/19 00:28:28;;;;;;;10.43;7.30;;;3.60;99.90;;;;;;5081671;28;20662;-84
2020/12/19 00:30:54;;;;;;;11.67;7.87;;;3.60;99.90;;;;;;5081523;28;20176;-85
2020/12/19 00:33:19;;;;;;;9.80;7.50;;;3.50;99.90;;;;;;5082160;28;20187;-85
2020/12/19 00:35:45;;;;;;;9.90;7.00;;;3.50;99.90;;;;;;5082988;28;20601;-86
2020/12/19 00:38:10;;;;;;;10.17;7.83;;;3.50;99.90;;;;;;5082964;28;20169;-86
2020/12/19 00:40:36;;;;;;;9.10;7.07;;;3.50;99.90;;;;;;5083301;28;20637;-84
2020/12/19 00:43:01;;;;;;;11.17;7.60;;;3.50;99.90;;;;;;5081976;28;20645;-84
2020/12/19 00:45:27;;;;;;;9.70;6.93;;;3.40;99.90;;;;;;5099060;28;20601;-84
2020/12/19 00:47:53;;;;;;;9.70;7.27;;;3.40;99.90;;;;;;5082659;28;20182;-85
2020/12/19 00:50:18;;;;;;;9.77;7.37;;;3.40;99.90;;;;;;5082581;28;20678;-85
2020/12/19 00:52:44;;;;;;;10.13;7.23;;;3.40;99.90;;;;;;5082423;28;20176;-84
2020/12/19 00:55:09;;;;;;;10.73;7.73;;;3.40;99.90;;;;;;5099053;28;20726;-84
2020/12/19 00:57:37;;;;;;;8.97;6.80;;;3.30;99.90;;;;;;5081813;28;20514;-84
2020/12/19 01:00:08;;;;;;;10.90;7.60;;;3.30;99.90;;;;;;5081519;28;20199;-84
2020/12/19 01:02:35;;;;;;;9.47;7.37;;;3.30;99.90;;;;;;5082196;28;20639;-85
2020/12/19 01:05:00;;;;;;;9.60;7.33;;;3.30;99.90;;;;;;5080975;28;20176;-84
2020/12/19 01:07:26;;;;;;;12.30;7.80;;;3.30;99.90;;;;;;5080808;28;20177;-85
2020/12/19 01:09:51;;;;;;;10.67;6.87;;;3.20;99.90;;;;;;5080782;28;20199;-84
2020/12/19 01:12:17;;;;;;;10.73;8.17;;;3.20;99.90;;;;;;5097526;28;20715;-84
2020/12/19 01:14:44;;;;;;;11.37;8.07;;;3.20;99.90;;;;;;5080734;28;20215;-84
2020/12/19 01:17:10;;;;;;;10.37;7.40;;;3.20;99.90;;;;;;5097401;28;20171;-85
2020/12/19 01:19:35;;;;;;;9.40;7.13;;;3.20;99.90;;;;;;5080026;28;20212;-84
2020/12/19 01:22:01;;;;;;;12.60;8.03;;;3.10;99.90;;;;;;5081365;28;20199;-85
2020/12/19 01:24:26;;;;;;;11.43;7.90;;;3.10;99.90;;;;;;5080126;28;20168;-84
2020/12/19 01:26:52;;;;;;;10.17;7.50;;;3.10;99.90;;;;;;5097186;28;20638;-84
2020/12/19 01:29:17;;;;;;;10.97;8.03;;;3.10;99.90;;;;;;5080430;28;20675;-85
2020/12/19 01:31:43;;;;;;;11.80;7.47;;;3.10;99.90;;;;;;5080076;28;20319;-85
2020/12/19 01:34:08;;;;;;;10.90;8.00;;;3.10;99.90;;;;;;5080277;28;20248;-85
2020/12/19 01:36:34;;;;;;;13.10;8.17;;;3.10;99.90;;;;;;5079924;28;20305;-85
2020/12/19 01:39:00;;;;;;;10.83;8.20;;;3.00;99.90;;;;;;5080131;28;20607;-85
2020/12/19 01:41:26;;;;;;;10.70;7.60;;;3.00;99.90;;;;;;5080565;28;20593;-84
2020/12/19 01:43:53;;;;;;;11.20;7.27;;;3.10;99.90;;;;;;5079631;28;20266;-85
2020/12/19 01:47:07;;;;;;;11.00;7.20;;;3.10;99.90;;;;;;5113504;28;20718;-84
2020/12/19 01:49:32;;;;;;;11.40;8.00;;;3.10;99.90;;;;;;5092414;28;20218;-85
2020/12/19 01:52:00;;;;;;;13.63;9.03;;;3.10;99.90;;;;;;5085808;28;20667;-84
2020/12/19 01:54:26;;;;;;;13.10;8.57;;;3.10;99.90;;;;;;5084153;28;20547;-85
2020/12/19 01:56:56;;;;;;;11.43;8.53;;;3.10;99.90;;;;;;5083876;28;20168;-85
2020/12/19 01:59:23;;;;;;;12.33;8.37;;;3.20;99.90;;;;;;5085648;28;20662;-85
2020/12/19 02:01:54;;;;;;;13.27;9.27;;;3.20;99.90;;;;;;5085581;28;20172;-85
2020/12/19 02:04:22;;;;;;;14.87;9.83;;;3.30;99.90;;;;;;5084949;28;20724;-85
2020/12/19 02:06:52;;;;;;;14.77;9.63;;;3.40;99.90;;;;;;5101952;28;20165;-85
2020/12/19 02:09:19;;;;;;;13.63;9.50;;;3.40;99.90;;;;;;5083874;28;20212;-85
2020/12/19 02:11:45;;;;;;;12.43;9.20;;;3.40;99.90;;;;;;5080442;28;20274;-85
2020/12/19 02:14:11;;;;;;;14.73;9.00;;;3.40;99.90;;;;;;5080386;28;20654;-86
2020/12/19 02:16:37;;;;;;;13.43;9.40;;;3.40;99.90;;;;;;5080481;28;20253;-86
2020/12/19 02:19:12;;;;;;;13.27;8.80;;;3.40;99.90;;;;;;5080079;28;20208;-85
2020/12/19 02:21:41;;;;;;;14.77;9.83;;;3.40;99.90;;;;;;5082907;28;20187;-85
2020/12/19 02:24:06;;;;;;;14.63;9.60;;;3.40;99.90;;;;;;5080491;28;20627;-86
2020/12/19 02:26:32;;;;;;;12.90;9.10;;;3.40;99.90;;;;;;5079894;28;20169;-86
2020/12/19 02:28:58;;;;;;;11.60;8.13;;;3.40;99.90;;;;;;5080274;28;20203;-86
2020/12/19 02:31:23;;;;;;;12.80;8.70;;;3.30;99.90;;;;;;5079601;28;20180;-86
2020/12/19 02:33:49;;;;;;;11.83;9.30;;;3.30;99.90;;;;;;5079649;28;20248;-85
2020/12/19 02:36:14;;;;;;;12.33;8.73;;;3.30;99.90;;;;;;5080060;28;20257;-84
2020/12/19 02:38:40;;;;;;;11.60;8.47;;;3.20;99.90;;;;;;5075243;28;20189;-86
2020/12/19 02:41:05;;;;;;;11.83;8.23;;;3.20;99.90;;;;;;5114026;28;20169;-86
2020/12/19 02:43:31;;;;;;;14.03;8.43;;;3.20;99.90;;;;;;5082226;28;20696;-85
2020/12/19 02:45:58;;;;;;;12.63;8.47;;;3.10;99.90;;;;;;5082372;28;20704;-84
2020/12/19 02:48:24;;;;;;;12.40;8.37;;;3.10;99.90;;;;;;5082399;28;20180;-85
2020/12/19 02:50:49;;;;;;;13.03;8.70;;;3.10;99.90;;;;;;5082345;28;20180;-85
2020/12/19 02:53:15;;;;;;;14.53;8.83;;;3.10;99.90;;;;;;5082523;28;20665;-84
2020/12/19 02:55:40;;;;;;;12.53;8.43;;;3.10;99.90;;;;;;5082322;28;20670;-85
2020/12/19 02:58:06;;;;;;;12.57;8.73;;;3.10;99.90;;;;;;5099123;28;20643;-85
2020/12/19 03:00:31;;;;;;;12.33;8.90;;;3.10;99.90;;;;;;5082277;28;20199;-85
2020/12/19 03:02:57;;;;;;;13.80;9.03;;;3.20;99.90;;;;;;5081855;28;20602;-85
2020/12/19 03:05:22;;;;;;;13.77;8.90;;;3.20;99.90;;;;;;5081811;28;20544;-83
2020/12/19 03:07:48;;;;;;;13.23;9.20;;;3.20;99.90;;;;;;5098206;28;20267;-85
2020/12/19 03:10:13;;;;;;;14.90;9.17;;;3.20;99.90;;;;;;5098451;28;20196;-85
2020/12/19 03:12:39;;;;;;;12.97;8.50;;;3.20;99.90;;;;;;5081674;28;20184;-84
2020/12/19 03:15:04;;;;;;;16.13;9.67;;;3.40;99.90;;;;;;5081410;28;20203;-84
2020/12/19 03:17:30;;;;;;;15.53;9.30;;;3.20;99.90;;;;;;5081155;28;20199;-85
2020/12/19 03:19:55;;;;;;;17.03;9.67;;;3.30;99.90;;;;;;5082160;28;20242;-84
2020/12/19 03:22:21;;;;;;;13.70;9.30;;;3.40;99.90;;;;;;5082250;28;20179;-85
2020/12/19 03:24:46;;;;;;;15.00;8.90;;;3.40;99.90;;;;;;5098601;28;20168;-84
2020/12/19 03:27:12;;;;;;;14.77;8.90;;;3.40;99.90;;;;;;5098632;28;20176;-84
2020/12/19 03:29:37;;;;;;;11.90;8.40;;;3.40;99.90;;;;;;5080287;28;20199;-84
2020/12/19 03:32:03;;;;;;;15.20;9.03;;;3.30;99.90;;;;;;5081381;28;20280;-85
2020/12/19 03:34:28;;;;;;;12.73;8.57;;;3.30;99.90;;;;;;5081604;28;20204;-86
2020/12/19 03:36:54;;;;;;;10.70;7.97;;;3.30;99.90;;;;;;5098377;28;20226;-85
2020/12/19 03:39:19;;;;;;;10.23;7.80;;;3.30;99.90;;;;;;5081198;28;20291;-84
2020/12/19 03:41:45;;;;;;;11.03;7.90;;;3.30;99.90;;;;;;5081245;28;20193;-85
2020/12/19 03:44:11;;;;;;;10.40;7.40;;;3.30;99.90;;;;;;5081028;28;20177;-85
2020/12/19 03:46:36;;;;;;;10.80;7.67;;;3.20;99.90;;;;;;5098348;28;20179;-85
2020/12/19 03:49:02;;;;;;;11.93;8.27;;;3.20;99.90;;;;;;5080782;28;20192;-84
2020/12/19 03:51:27;;;;;;;9.30;7.37;;;3.20;99.90;;;;;;5081430;28;20179;-85
2020/12/19 03:53:53;;;;;;;10.43;7.83;;;3.10;99.90;;;;;;5081793;28;20180;-86
2020/12/19 03:56:18;;;;;;;12.10;8.63;;;3.10;99.90;;;;;;5081593;28;20208;-86
2020/12/19 03:58:44;;;;;;;12.77;8.50;;;3.10;99.90;;;;;;5081898;28;20459;-84
2020/12/19 04:01:09;;;;;;;13.83;8.87;;;3.10;99.90;;;;;;5098181;28;20168;-85
2020/12/19 04:03:35;;;;;;;12.30;8.47;;;3.10;99.90;;;;;;5098679;28;20173;-85
2020/12/19 04:06:00;;;;;;;12.93;8.50;;;3.10;99.90;;;;;;5082317;28;20172;-85
2020/12/19 04:08:26;;;;;;;11.67;8.20;;;3.10;99.90;;;;;;5081739;28;20203;-85
2020/12/19 04:10:51;;;;;;;10.43;8.03;;;3.10;99.90;;;;;;5097650;28;20188;-85
2020/12/19 04:13:17;;;;;;;13.30;8.60;;;3.10;99.90;;;;;;5081318;28;20187;-85
2020/12/19 04:15:42;;;;;;;14.40;9.03;;;3.10;99.90;;;;;;5081871;28;20212;-85
2020/12/19 04:18:10;;;;;;;13.80;9.10;;;3.10;99.90;;;;;;5096438;28;20271;-84
2020/12/19 04:20:35;;;;;;;12.77;8.80;;;3.10;99.90;;;;;;5084707;28;20192;-85
2020/12/19 04:23:01;;;;;;;14.30;9.33;;;3.10;99.90;;;;;;5100473;28;20180;-85
2020/12/19 04:25:27;;;;;;;13.03;8.90;;;3.10;99.90;;;;;;5101089;28;20585;-85
2020/12/19 04:27:52;;;;;;;11.30;8.90;;;3.10;99.90;;;;;;5084459;28;20176;-85
2020/12/19 04:30:18;;;;;;;11.77;8.27;;;3.00;99.90;;;;;;5084129;28;20200;-86
2020/12/19 04:32:43;;;;;;;12.37;8.90;;;3.00;99.90;;;;;;5083274;28;20176;-85
2020/12/19 04:35:09;;;;;;;13.47;8.97;;;3.00;99.90;;;;;;5083931;28;20207;-86
2020/12/19 04:37:34;;;;;;;13.23;9.03;;;3.00;99.90;;;;;;5083824;28;20183;-84
2020/12/19 04:40:00;;;;;;;15.13;9.30;;;3.00;99.90;;;;;;5083668;28;20194;-85
2020/12/19 04:42:25;;;;;;;14.37;9.10;;;3.00;99.90;;;;;;5099760;28;20169;-85
2020/12/19 04:44:51;;;;;;;11.40;8.33;;;3.00;99.90;;;;;;5083800;28;20176;-85
2020/12/19 04:47:17;;;;;;;15.80;9.40;;;3.00;99.90;;;;;;5082978;28;20195;-86
2020/12/19 04:49:43;;;;;;;13.77;9.47;;;3.00;99.90;;;;;;5100046;28;20223;-84
2020/12/19 04:52:08;;;;;;;14.07;9.27;;;3.00;99.90;;;;;;5083549;28;20208;-84
2020/12/19 04:54:35;;;;;;;17.13;10.00;;;2.90;99.90;;;;;;5101479;28;20612;-85
2020/12/19 04:57:00;;;;;;;17.07;10.77;;;3.00;99.90;;;;;;5082803;28;20215;-84
2020/12/19 04:59:26;;;;;;;12.67;9.00;;;3.00;99.90;;;;;;5082965;28;20238;-85
2020/12/19 05:01:51;;;;;;;14.77;10.23;;;3.00;99.90;;;;;;5082660;28;20587;-85
2020/12/19 05:04:17;;;;;;;15.03;10.27;;;3.00;99.90;;;;;;5083551;28;20180;-86
2020/12/19 05:06:43;;;;;;;16.10;10.33;;;3.00;99.90;;;;;;5084151;28;20255;-84
2020/12/19 05:09:09;;;;;;;18.43;10.47;;;3.00;99.90;;;;;;5088408;28;20204;-84
2020/12/19 05:11:35;;;;;;;15.83;11.00;;;3.00;99.90;;;;;;5084217;28;20561;-84
2020/12/19 05:14:03;;;;;;;14.57;10.40;;;3.00;99.90;;;;;;5083472;28;20271;-82
2020/12/19 05:16:28;;;;;;;13.33;9.70;;;3.00;99.90;;;;;;5083471;28;20211;-83
2020/12/19 05:18:54;;;;;;;15.30;10.93;;;3.00;99.90;;;;;;5099880;28;20207;-82
2020/12/19 05:21:19;;;;;;;13.43;9.97;;;3.00;99.90;;;;;;5082694;28;20180;-83
2020/12/19 05:23:45;;;;;;;17.20;10.90;;;2.90;99.90;;;;;;5082497;28;20667;-84
2020/12/19 05:26:11;;;;;;;13.50;9.63;;;2.90;99.90;;;;;;5081954;28;20589;-83
2020/12/19 05:28:39;;;;;;;15.63;10.80;;;2.90;99.90;;;;;;5081832;28;20207;-84
2020/12/19 05:31:05;;;;;;;17.03;10.67;;;2.90;99.90;;;;;;5081560;28;20181;-84
2020/12/19 05:33:35;;;;;;;15.83;10.47;;;2.90;99.90;;;;;;5081792;28;20195;-83
2020/12/19 05:36:02;;;;;;;16.00;10.67;;;2.90;99.90;;;;;;5099148;28;20211;-84
2020/12/19 05:38:28;;;;;;;17.60;11.20;;;2.90;99.90;;;;;;5099108;28;20194;-82
2020/12/19 05:40:54;;;;;;;14.93;10.63;;;2.90;99.90;;;;;;5082690;28;20180;-83
2020/12/19 05:43:20;;;;;;;16.00;10.70;;;2.90;99.90;;;;;;5081920;28;20199;-84
2020/12/19 05:45:45;;;;;;;16.90;10.33;;;2.90;99.90;;;;;;5081808;28;20172;-86
2020/12/19 05:48:11;;;;;;;17.47;10.70;;;2.80;99.90;;;;;;5081942;28;20180;-84
2020/12/19 05:50:36;;;;;;;17.67;10.63;;;2.80;99.90;;;;;;5081826;28;20187;-84
2020/12/19 05:53:02;;;;;;;15.53;10.70;;;2.80;99.90;;;;;;5081078;28;20183;-83
2020/12/19 05:55:28;;;;;;;17.10;10.77;;;2.80;99.90;;;;;;5097896;28;20299;-84
2020/12/19 05:57:53;;;;;;;14.60;10.70;;;2.80;99.90;;;;;;5081493;28;20215;-85
2020/12/19 06:00:19;;;;;;;16.17;11.30;;;2.80;99.90;;;;;;5097377;28;20188;-84
2020/12/19 06:02:45;;;;;;;17.37;11.47;;;2.80;99.90;;;;;;5080944;28;20179;-84
2020/12/19 06:05:11;;;;;;;20.00;11.50;;;2.80;99.90;;;;;;5080381;28;20238;-83
2020/12/19 06:07:39;;;;;;;19.90;12.70;;;2.80;99.90;;;;;;5080036;28;20248;-84
2020/12/19 06:10:06;;;;;;;18.03;11.97;;;2.90;99.90;;;;;;5097219;28;20218;-84
2020/12/19 06:12:45;;;;;;;18.17;12.13;;;2.90;99.90;;;;;;5080691;28;20189;-83
2020/12/19 06:15:15;;;;;;;18.77;11.67;;;2.90;99.90;;;;;;5097553;28;20208;-83
2020/12/19 06:17:51;;;;;;;19.80;13.67;;;2.90;99.90;;;;;;5081074;28;20180;-84
2020/12/19 06:20:16;;;;;;;26.23;15.43;;;3.10;99.90;;;;;;5100267;28;20211;-84
2020/12/19 06:22:43;;;;;;;21.77;15.30;;;3.40;99.90;;;;;;5085263;28;20178;-83
2020/12/19 06:25:08;;;;;;;31.40;16.30;;;3.50;99.90;;;;;;5081199;28;20192;-82
2020/12/19 06:27:34;;;;;;;27.40;16.80;;;3.60;99.90;;;;;;5113157;28;20180;-82
2020/12/19 06:29:59;;;;;;;26.77;15.93;;;3.60;99.90;;;;;;5113943;28;20207;-84
2020/12/19 06:32:29;;;;;;;24.23;15.53;;;3.70;99.90;;;;;;5079944;28;20536;-84
2020/12/19 06:35:06;;;;;;;20.30;14.10;;;3.60;99.90;;;;;;5096620;28;20208;-85
2020/12/19 06:37:32;;;;;;;21.37;13.87;;;3.60;99.90;;;;;;5096754;28;20180;-83
2020/12/19 06:40:20;;;;;;;22.50;14.20;;;3.50;99.90;;;;;;5076536;28;20204;-84
2020/12/19 06:42:46;;;;;;;17.73;12.23;;;3.50;99.90;;;;;;5077437;28;20180;-86
2020/12/19 06:45:27;;;;;;;18.27;12.80;;;3.50;99.90;;;;;;5065304;28;20177;-85
2020/12/19 06:47:52;;;;;;;16.93;11.67;;;3.40;99.90;;;;;;5059455;28;20183;-87
2020/12/19 06:50:19;;;;;;;20.03;13.07;;;3.30;99.90;;;;;;5059775;28;20197;-84
2020/12/19 06:53:00;;;;;;;19.10;12.43;;;3.30;99.90;;;;;;5060238;28;20223;-85
2020/12/19 06:55:27;;;;;;;18.50;12.73;;;3.30;99.90;;;;;;5060751;28;20203;-85
2020/12/19 06:57:56;;;;;;;16.80;11.63;;;3.20;99.90;;;;;;5059021;28;20217;-84
2020/12/19 07:00:31;;;;;;;19.50;13.37;;;3.20;99.90;;;;;;5058665;28;20197;-85
2020/12/19 07:03:01;;;;;;;18.97;12.37;;;3.10;99.90;;;;;;5058442;28;20180;-84
2020/12/19 07:05:27;;;;;;;21.93;13.37;;;3.20;99.90;;;;;;5058502;28;20196;-84
2020/12/19 07:07:53;;;;;;;18.20;13.40;;;3.30;99.90;;;;;;5092185;28;20180;-84
2020/12/19 07:10:34;;;;;;;20.77;13.53;;;3.30;99.90;;;;;;5075422;28;20193;-86
2020/12/19 07:13:00;;;;;;;20.80;13.47;;;3.20;99.90;;;;;;5085964;28;20183;-83
2020/12/19 07:15:45;;;;;;;20.07;13.30;;;3.30;99.90;;;;;;5096683;28;20195;-85
2020/12/19 07:18:33;;;;;;;22.50;13.60;;;3.10;99.90;;;;;;5095657;28;20608;-87
2020/12/19 07:20:59;;;;;;;19.97;13.67;;;3.30;99.90;;;;;;5068026;28;20682;-86
2020/12/19 07:23:24;;;;;;;21.53;13.83;;;3.30;99.90;;;;;;5090861;22;20235;-91
2020/12/19 07:25:50;;;;;;;26.60;16.60;;;3.40;99.90;;;;;;5057842;28;20188;-89
2020/12/19 07:28:15;;;;;;;23.33;14.13;;;3.50;99.90;;;;;;5071794;28;20186;-85
2020/12/19 07:30:41;;;;;;;23.10;14.73;;;3.40;99.90;;;;;;5035957;28;20192;-85
2020/12/19 07:33:08;;;;;;;21.97;13.77;;;3.40;99.90;;;;;;5039687;28;20181;-87
2020/12/19 07:35:35;;;;;;;21.27;12.77;;;3.40;99.90;;;;;;5061003;28;20194;-87
2020/12/19 07:38:01;;;;;;;19.20;13.67;;;3.40;99.90;;;;;;5033894;28;20203;-87
2020/12/19 07:40:28;;;;;;;19.63;13.63;;;3.50;99.90;;;;;;5054121;28;20182;-86
2020/12/19 07:43:03;;;;;;;30.43;18.83;;;3.50;99.90;;;;;;5034868;28;20177;-87
2020/12/19 07:45:28;;;;;;;25.97;16.17;;;3.40;99.90;;;;;;5048368;28;20184;-86
2020/12/19 07:47:54;;;;;;;24.30;16.10;;;3.50;99.90;;;;;;5035971;28;20185;-85
2020/12/19 07:50:38;;;;;;;24.57;15.70;;;3.60;99.90;;;;;;5040045;28;20201;-86
2020/12/19 07:53:05;;;;;;;27.60;16.83;;;3.90;99.90;;;;;;5027586;28;20182;-85
2020/12/19 07:55:31;;;;;;;23.60;16.70;;;4.00;99.90;;;;;;5034865;28;20226;-83
2020/12/19 07:57:57;;;;;;;24.93;16.40;;;4.20;99.90;;;;;;5039040;28;20555;-85
2020/12/19 08:00:23;;;;;;;26.77;16.23;;;4.10;99.90;;;;;;5042656;28;20174;-84
2020/12/19 08:02:48;;;;;;;27.13;16.97;;;4.10;99.90;;;;;;5049719;28;20190;-85
2020/12/19 08:05:14;;;;;;;27.30;15.73;;;4.10;99.90;;;;;;5038225;28;20222;-83
2020/12/19 08:07:39;;;;;;;25.33;16.33;;;4.20;99.90;;;;;;5038699;28;20178;-86
2020/12/19 08:10:06;;;;;;;27.13;17.00;;;4.30;99.90;;;;;;5037975;28;20232;-85
2020/12/19 08:12:32;;;;;;;27.97;16.90;;;4.30;99.90;;;;;;5028905;28;20182;-85
2020/12/19 08:15:17;;;;;;;25.17;16.67;;;4.40;99.90;;;;;;5021558;28;20631;-84
2020/12/19 08:17:55;;;;;;;24.67;16.00;;;4.40;99.90;;;;;;5053380;28;20174;-83
2020/12/19 08:20:37;;;;;;;28.40;16.77;;;4.80;99.90;;;;;;5040074;28;20178;-87
2020/12/19 08:23:07;;;;;;;29.20;16.77;;;5.00;99.90;;;;;;5038973;28;20180;-84
2020/12/19 08:25:36;;;;;;;23.93;17.23;;;5.00;99.90;;;;;;5042590;28;20185;-86
2020/12/19 08:28:01;;;;;;;22.53;15.93;;;5.10;99.90;;;;;;5057466;28;20572;-84
2020/12/19 08:30:30;;;;;;;24.30;15.60;;;5.10;99.90;;;;;;5058055;28;20266;-87
2020/12/19 08:33:06;;;;;;;26.90;17.27;;;5.10;99.90;;;;;;5058034;28;20178;-86
2020/12/19 08:35:34;;;;;;;25.33;16.77;;;5.40;99.90;;;;;;5057477;28;20209;-87
2020/12/19 08:38:05;;;;;;;24.43;16.97;;;5.60;99.90;;;;;;5057712;28;20196;-84
2020/12/19 08:40:35;;;;;;;22.50;15.80;;;5.60;99.90;;;;;;5069549;28;20186;-85
2020/12/19 08:43:01;;;;;;;25.30;16.77;;;5.80;99.90;;;;;;5049208;28;20204;-87
2020/12/19 08:45:28;;;;;;;22.27;16.07;;;6.00;99.90;;;;;;5037272;28;20720;-87
2020/12/19 08:47:58;;;;;;;26.03;15.60;;;6.10;99.90;;;;;;5020848;28;20182;-85
2020/12/19 08:50:41;;;;;;;19.30;15.27;;;6.00;99.90;;;;;;5021390;28;20177;-86
2020/12/19 08:53:11;;;;;;;21.53;15.20;;;6.00;99.90;;;;;;5022364;28;20166;-85
2020/12/19 08:55:37;;;;;;;22.80;14.90;;;6.00;99.90;;;;;;5021083;28;20692;-85
2020/12/19 08:58:03;;;;;;;20.53;15.13;;;5.90;99.90;;;;;;5022835;28;20182;-86
2020/12/19 09:00:36;;;;;;;23.83;16.07;;;6.10;99.90;;;;;;5026897;28;20178;-86
2020/12/19 09:03:04;;;;;;;22.97;16.57;;;6.10;99.90;;;;;;5021859;28;20224;-87
2020/12/19 09:05:38;;;;;;;27.30;16.33;;;6.30;99.90;;;;;;5020737;28;20208;-85
2020/12/19 09:08:03;;;;;;;23.83;16.80;;;6.40;99.90;;;;;;5037909;28;20162;-86
2020/12/19 09:10:31;;;;;;;23.37;14.87;;;6.60;99.90;;;;;;5021311;28;20192;-87
2020/12/19 09:13:06;;;;;;;23.50;15.83;;;6.70;99.90;;;;;;5025436;28;20182;-85
2020/12/19 09:15:31;;;;;;;23.73;16.20;;;6.70;99.90;;;;;;5058243;28;20209;-86
2020/12/19 09:17:57;;;;;;;22.20;16.40;;;6.90;99.90;;;;;;5036232;28;20179;-84
2020/12/19 09:20:25;;;;;;;22.47;15.80;;;7.00;99.90;;;;;;5039317;28;20193;-84
2020/12/19 09:22:51;;;;;;;20.97;16.17;;;7.00;99.90;;;;;;5031599;28;20189;-78
2020/12/19 09:25:17;;;;;;;22.70;15.20;;;7.10;99.90;;;;;;5024725;28;20215;-75
2020/12/19 09:27:42;;;;;;;19.47;15.50;;;7.30;99.90;;;;;;5053047;28;20212;-74
2020/12/19 09:30:08;;;;;;;22.60;16.30;;;7.40;99.90;;;;;;5073829;28;20177;-75
2020/12/19 09:32:33;;;;;;;23.80;16.10;;;7.50;99.90;;;;;;5054506;28;20210;-75
2020/12/19 09:34:59;;;;;;;23.63;16.43;;;7.60;99.90;;;;;;5052218;28;20194;-74
2020/12/19 09:37:24;;;;;;;21.67;15.90;;;7.70;99.90;;;;;;5052274;28;20178;-75
2020/12/19 09:39:50;;;;;;;20.97;14.93;;;7.80;99.90;;;;;;5026626;28;20179;-81
2020/12/19 09:42:15;;;;;;;22.07;16.23;;;7.90;99.90;;;;;;5053831;28;20170;-77
2020/12/19 09:44:41;;;;;;;19.33;14.87;;;8.00;99.90;;;;;;5036187;28;20289;-78
2020/12/19 09:47:06;;;;;;;19.67;15.10;;;8.10;99.90;;;;;;5036993;28;20254;-76
2020/12/19 09:49:32;;;;;;;19.57;15.20;;;8.20;99.90;;;;;;5064216;28;20262;-76
2020/12/19 09:51:57;;;;;;;19.57;13.87;;;8.20;99.90;;;;;;5055815;28;20307;-76
2020/12/19 09:54:23;;;;;;;20.77;14.47;;;8.30;99.90;;;;;;5038339;28;20208;-76
2020/12/19 09:56:49;;;;;;;17.90;13.60;;;8.40;99.90;;;;;;5041038;28;20221;-75
2020/12/19 09:59:14;;;;;;;17.93;13.17;;;8.40;99.90;;;;;;5052801;28;20177;-74
2020/12/19 10:01:40;;;;;;;17.90;13.67;;;8.40;99.90;;;;;;5064698;28;20181;-75
2020/12/19 10:04:05;;;;;;;19.03;13.20;;;8.40;99.90;;;;;;5069335;28;20204;-75
2020/12/19 10:06:31;;;;;;;17.77;13.23;;;8.50;99.90;;;;;;5065443;28;20276;-72
2020/12/19 10:08:56;;;;;;;17.73;13.37;;;8.70;99.90;;;;;;5068619;28;20189;-74
2020/12/19 10:11:22;;;;;;;18.63;13.03;;;8.90;99.90;;;;;;5029512;28;20179;-75
2020/12/19 10:13:48;;;;;;;18.57;12.37;;;9.00;99.90;;;;;;5019234;28;20205;-73
2020/12/19 10:16:13;;;;;;;14.60;12.23;;;9.10;99.90;;;;;;5054003;28;20267;-73
2020/12/19 10:18:39;;;;;;;15.23;11.77;;;9.20;99.90;;;;;;5070944;28;20611;-73
2020/12/19 10:21:08;;;;;;;14.27;11.43;;;9.30;99.90;;;;;;5070172;28;20608;-72
2020/12/19 10:23:34;;;;;;;14.17;10.80;;;9.30;99.90;;;;;;5054324;28;20240;-75
2020/12/19 10:26:02;;;;;;;13.83;11.20;;;9.30;99.90;;;;;;5071157;28;20165;-75
2020/12/19 10:28:28;;;;;;;17.20;11.27;;;9.40;99.90;;;;;;5055748;28;20188;-76
2020/12/19 10:30:53;;;;;;;12.87;10.77;;;9.50;99.90;;;;;;5071745;28;20177;-74
2020/12/19 10:33:20;;;;;;;13.57;10.47;;;9.70;99.90;;;;;;5055612;28;20178;-74
2020/12/19 10:35:48;;;;;;;15.43;11.03;;;9.80;99.90;;;;;;5071537;28;20206;-77
2020/12/19 10:38:14;;;;;;;13.90;10.67;;;9.80;99.90;;;;;;5034205;28;20265;-78
2020/12/19 10:40:40;;;;;;;13.97;10.57;;;10.00;99.90;;;;;;5052173;28;20211;-80
2020/12/19 10:43:05;;;;;;;13.13;10.57;;;10.20;99.90;;;;;;5035076;28;20239;-79
2020/12/19 10:45:31;;;;;;;13.03;9.60;;;10.20;99.90;;;;;;5035273;28;20272;-80
2020/12/19 10:47:56;;;;;;;13.97;9.57;;;10.30;99.90;;;;;;5034838;28;20547;-80
2020/12/19 10:50:22;;;;;;;14.20;10.40;;;10.20;99.90;;;;;;5051308;28;20195;-79
2020/12/19 10:52:47;;;;;;;15.20;10.43;;;10.30;99.90;;;;;;5034626;28;20189;-79
2020/12/19 10:55:13;;;;;;;14.07;9.00;;;10.50;99.90;;;;;;5035323;28;20683;-79
2020/12/19 10:57:39;;;;;;;12.97;9.77;;;10.50;99.90;;;;;;5034751;28;20176;-78
2020/12/19 11:00:05;;;;;;;11.97;9.10;;;10.70;99.90;;;;;;5035010;28;20208;-79
2020/12/19 11:02:31;;;;;;;12.47;9.00;;;10.60;99.90;;;;;;5051379;28;20181;-79
2020/12/19 11:04:56;;;;;;;12.50;8.50;;;10.60;99.90;;;;;;5051595;28;20196;-79
2020/12/19 11:07:22;;;;;;;10.37;8.70;;;10.70;99.90;;;;;;5034533;28;20235;-79
2020/12/19 11:09:47;;;;;;;10.57;8.40;;;10.90;99.90;;;;;;5035141;28;20189;-79
2020/12/19 11:12:13;;;;;;;9.60;7.30;;;10.90;99.90;;;;;;5034704;28;20181;-78
2020/12/19 11:14:38;;;;;;;10.17;7.07;;;11.00;99.90;;;;;;5051315;28;20348;-79
2020/12/19 11:17:04;;;;;;;11.73;6.90;;;11.00;99.90;;;;;;5034462;28;20237;-79
2020/12/19 11:19:29;;;;;;;8.53;6.70;;;11.20;99.90;;;;;;5051470;28;20258;-79
2020/12/19 11:21:55;;;;;;;7.80;6.33;;;11.30;99.90;;;;;;5051370;28;20181;-79
2020/12/19 11:24:22;;;;;;;8.60;7.10;;;11.30;99.90;;;;;;5034462;28;20225;-78
2020/12/19 11:26:48;;;;;;;10.47;6.80;;;11.40;99.90;;;;;;5050929;28;20192;-78
2020/12/19 11:29:14;;;;;;;9.47;6.30;;;11.30;99.90;;;;;;5037914;28;20182;-78
2020/12/19 11:31:39;;;;;;;9.10;6.07;;;11.30;99.90;;;;;;5054959;28;20234;-79
2020/12/19 11:34:05;;;;;;;6.90;5.57;;;11.40;99.90;;;;;;5055235;28;20483;-79
2020/12/19 11:36:35;;;;;;;7.80;5.77;;;11.50;99.90;;;;;;5054849;28;20208;-79
2020/12/19 11:39:00;;;;;;;9.03;5.43;;;11.50;99.90;;;;;;5055152;28;20621;-79
2020/12/19 11:41:26;;;;;;;8.27;5.90;;;11.60;99.90;;;;;;5038318;28;20261;-79
2020/12/19 11:43:52;;;;;;;7.50;5.80;;;11.60;99.90;;;;;;5038228;28;20202;-77
2020/12/19 11:46:17;;;;;;;6.83;5.77;;;11.70;99.90;;;;;;5054707;28;20186;-78
2020/12/19 11:48:43;;;;;;;6.73;5.07;;;11.70;99.90;;;;;;5038678;28;20649;-77
2020/12/19 11:51:09;;;;;;;6.93;5.10;;;11.80;99.90;;;;;;5055462;28;20641;-77
2020/12/19 11:53:34;;;;;;;5.90;4.90;;;11.70;99.90;;;;;;5055030;28;20205;-77
2020/12/19 11:56:01;;;;;;;7.37;5.30;;;11.70;99.90;;;;;;5054728;28;20206;-77
2020/12/19 11:58:27;;;;;;;6.83;5.07;;;11.80;99.90;;;;;;5038688;28;20181;-78
2020/12/19 12:00:52;;;;;;;7.67;4.93;;;11.90;99.90;;;;;;5038123;28;20182;-78
2020/12/19 12:03:18;;;;;;;7.63;4.77;;;12.00;99.90;;;;;;5038123;28;20174;-78
2020/12/19 12:05:45;;;;;;;4.73;4.10;;;12.00;99.90;;;;;;5057676;28;20186;-78
2020/12/19 12:08:10;;;;;;;7.07;4.43;;;12.10;99.90;;;;;;5039139;28;20235;-77
2020/12/19 12:10:36;;;;;;;9.17;4.53;;;12.10;99.90;;;;;;5055229;28;20182;-79
2020/12/19 12:13:01;;;;;;;5.67;3.93;;;12.10;99.90;;;;;;5038580;28;20252;-77
2020/12/19 12:15:27;;;;;;;5.87;4.40;;;12.10;99.90;;;;;;5038152;28;20214;-78
2020/12/19 12:17:52;;;;;;;6.33;4.30;;;12.10;99.90;;;;;;5038695;28;20602;-78
2020/12/19 12:20:18;;;;;;;6.43;3.70;;;12.20;99.90;;;;;;5055300;28;20206;-78
2020/12/19 12:22:44;;;;;;;5.27;4.03;;;12.10;99.90;;;;;;5038241;28;20567;-79
2020/12/19 12:25:10;;;;;;;5.43;4.30;;;12.20;99.90;;;;;;5054653;28;20220;-78
2020/12/19 12:27:35;;;;;;;6.00;3.70;;;12.20;99.90;;;;;;5054535;28;20178;-78
2020/12/19 12:30:02;;;;;;;5.07;3.93;;;12.20;99.90;;;;;;5054490;28;20657;-77
2020/12/19 12:32:28;;;;;;;7.80;4.00;;;12.20;99.90;;;;;;5037666;28;20308;-78
2020/12/19 12:34:53;;;;;;;5.70;3.90;;;12.30;99.90;;;;;;5037624;28;20216;-78
2020/12/19 12:37:19;;;;;;;6.20;4.10;;;12.30;99.90;;;;;;5054118;28;20174;-79
2020/12/19 12:39:44;;;;;;;4.60;3.80;;;12.30;99.90;;;;;;5054599;28;20476;-78
2020/12/19 12:42:10;;;;;;;6.30;3.70;;;12.30;99.90;;;;;;5054651;28;20170;-78